createdAt,value
2022-08-01T00:01:11.106Z,17.36
2022-08-01T00:04:19.012Z,16.96
2022-08-01T00:07:25.526Z,17.25
2022-08-01T00:10:31.821Z,17.26
2022-08-01T00:13:38.042Z,17.32
2022-08-01T00:16:44.528Z,17.32
2022-08-01T00:19:52.317Z,17.32
2022-08-01T00:22:58.574Z,17.20
2022-08-01T00:26:05.084Z,17.20
2022-08-01T00:30:01.119Z,17.18
2022-08-01T00:32:37.787Z,16.61
2022-08-01T00:35:45.438Z,16.88
2022-08-01T00:38:51.796Z,16.71
2022-08-01T00:41:59.859Z,16.62
2022-08-01T00:45:07.275Z,16.76
2022-08-01T00:48:13.658Z,16.52
2022-08-01T00:51:21.551Z,16.51
2022-08-01T00:54:28.861Z,16.70
2022-08-01T00:58:03.141Z,16.74
2022-08-01T01:01:01.498Z,16.64
2022-08-01T01:04:10.145Z,16.33
2022-08-01T01:07:23.697Z,16.40
2022-08-01T01:10:39.431Z,16.39
2022-08-01T01:13:50.846Z,16.47
2022-08-01T01:17:00.740Z,16.43
2022-08-01T01:20:10.327Z,16.41
2022-08-01T01:23:46.796Z,16.38
2022-08-01T01:26:59.699Z,15.36
2022-08-01T01:30:08.350Z,15.33
2022-08-01T01:33:16.999Z,15.57
2022-08-01T01:36:26.613Z,15.83
2022-08-01T01:39:34.866Z,16.18
2022-08-01T01:42:42.207Z,16.16
2022-08-01T01:45:50.831Z,15.52
2022-08-01T01:48:59.721Z,15.11
2022-08-01T01:52:07.410Z,15.57
2022-08-01T01:55:15.736Z,15.85
2022-08-01T01:58:22.925Z,15.90
2022-08-01T02:01:58.422Z,15.90
2022-08-01T02:05:01.369Z,15.74
2022-08-01T02:08:09.386Z,15.44
2022-08-01T02:11:22.566Z,15.68
2022-08-01T02:14:30.931Z,15.24
2022-08-01T02:17:42.029Z,15.50
2022-08-01T02:20:48.975Z,15.47
2022-08-01T02:24:10.437Z,14.98
2022-08-01T02:27:23.557Z,15.19
2022-08-01T02:30:34.862Z,15.48
2022-08-01T02:33:47.282Z,15.22
2022-08-01T02:36:56.007Z,14.89
2022-08-01T02:40:02.892Z,14.85
2022-08-01T02:43:11.516Z,15.18
2022-08-01T02:46:23.486Z,14.83
2022-08-01T02:49:33.979Z,14.73
2022-08-01T02:52:41.456Z,15.03
2022-08-01T02:55:49.787Z,14.35
2022-08-01T02:58:56.646Z,14.83
2022-08-01T03:02:06.403Z,14.36
2022-08-01T03:05:18.240Z,14.31
2022-08-01T03:08:26.151Z,14.73
2022-08-01T03:11:34.735Z,14.22
2022-08-01T03:14:42.609Z,14.00
2022-08-01T03:17:51.163Z,13.51
2022-08-01T03:21:01.646Z,14.11
2022-08-01T03:24:10.285Z,14.35
2022-08-01T03:27:17.011Z,14.22
2022-08-01T03:30:24.724Z,14.51
2022-08-01T03:33:31.504Z,13.53
2022-08-01T03:36:45.263Z,12.94
2022-08-01T03:39:56.689Z,13.49
2022-08-01T03:43:06.294Z,13.52
2022-08-01T03:46:16.731Z,14.20
2022-08-01T03:49:27.682Z,14.50
2022-08-01T03:52:37.249Z,13.41
2022-08-01T03:55:45.875Z,13.79
2022-08-01T03:58:53.446Z,13.51
2022-08-01T04:02:01.004Z,14.19
2022-08-01T04:05:08.671Z,14.51
2022-08-01T04:08:16.330Z,14.39
2022-08-01T04:11:23.235Z,14.67
2022-08-01T04:14:30.236Z,14.49
2022-08-01T04:17:36.516Z,14.66
2022-08-01T04:20:43.054Z,14.91
2022-08-01T04:23:53.592Z,14.75
2022-08-01T04:27:19.440Z,15.28
2022-08-01T04:30:48.511Z,15.33
2022-08-01T04:33:57.167Z,15.14
2022-08-01T04:37:04.474Z,15.67
2022-08-01T04:40:14.480Z,15.70
2022-08-01T04:43:21.107Z,15.65
2022-08-01T04:46:27.444Z,15.68
2022-08-01T04:49:48.716Z,16.19
2022-08-01T04:52:55.661Z,16.48
2022-08-01T04:56:03.567Z,16.28
2022-08-01T04:59:38.634Z,16.93
2022-08-01T05:02:44.657Z,17.27
2022-08-01T05:05:51.050Z,17.38
2022-08-01T05:08:57.245Z,17.16
2022-08-01T05:12:06.921Z,17.53
2022-08-01T05:15:15.450Z,18.08
2022-08-01T05:18:26.182Z,17.99
2022-08-01T05:21:34.516Z,18.20
2022-08-01T05:24:42.043Z,18.48
2022-08-01T05:27:50.876Z,18.21
2022-08-01T05:30:57.686Z,18.60
2022-08-01T05:34:04.155Z,19.02
2022-08-01T05:37:10.994Z,18.93
2022-08-01T05:40:17.008Z,19.38
2022-08-01T05:43:28.476Z,19.37
2022-08-01T05:46:35.821Z,19.34
2022-08-01T05:49:41.868Z,19.62
2022-08-01T05:52:47.868Z,19.82
2022-08-01T05:55:53.906Z,19.70
2022-08-01T05:59:01.382Z,19.77
2022-08-01T06:02:08.128Z,19.53
2022-08-01T06:05:14.323Z,19.50
2022-08-01T06:08:20.246Z,20.02
2022-08-01T06:11:26.754Z,19.94
2022-08-01T06:14:34.524Z,20.21
2022-08-01T06:17:42.370Z,20.19
2022-08-01T06:20:48.940Z,20.38
2022-08-01T06:23:55.188Z,20.35
2022-08-01T06:27:01.502Z,20.19
2022-08-01T06:30:10.203Z,20.65
2022-08-01T06:33:16.531Z,20.26
2022-08-01T06:36:22.993Z,20.63
2022-08-01T06:39:29.491Z,20.36
2022-08-01T06:42:37.483Z,20.84
2022-08-01T06:45:45.359Z,20.86
2022-08-01T06:48:51.819Z,21.17
2022-08-01T06:51:58.133Z,21.09
2022-08-01T06:55:04.861Z,21.08
2022-08-01T06:58:11.243Z,21.55
2022-08-01T07:01:19.056Z,21.36
2022-08-01T07:04:25.272Z,21.33
2022-08-01T07:07:31.140Z,21.54
2022-08-01T07:10:37.118Z,21.87
2022-08-01T07:13:45.660Z,22.06
2022-08-01T07:16:53.600Z,21.72
2022-08-01T07:19:59.635Z,21.81
2022-08-01T07:23:05.628Z,21.85
2022-08-01T07:26:14.670Z,21.82
2022-08-01T07:29:20.531Z,22.01
2022-08-01T07:32:28.134Z,22.00
2022-08-01T07:35:34.123Z,22.27
2022-08-01T07:38:40.151Z,22.04
2022-08-01T07:42:06.425Z,21.94
2022-08-01T07:45:13.091Z,22.28
2022-08-01T07:48:21.845Z,22.32
2022-08-01T07:51:28.252Z,22.42
2022-08-01T07:54:35.194Z,22.38
2022-08-01T07:57:41.455Z,22.23
2022-08-01T08:00:47.705Z,22.33
2022-08-01T08:03:55.693Z,22.70
2022-08-01T08:07:02.153Z,22.34
2022-08-01T08:10:09.454Z,22.50
2022-08-01T08:13:15.904Z,22.84
2022-08-01T08:16:24.687Z,22.62
2022-08-01T08:19:37.493Z,23.09
2022-08-01T08:22:44.734Z,22.12
2022-08-01T08:25:53.523Z,22.59
2022-08-01T08:28:59.383Z,22.53
2022-08-01T08:32:05.844Z,22.69
2022-08-01T08:35:17.238Z,22.59
2022-08-01T08:38:30.124Z,23.44
2022-08-01T08:41:38.349Z,23.02
2022-08-01T08:44:45.040Z,22.94
2022-08-01T08:47:51.850Z,22.93
2022-08-01T08:51:02.096Z,23.35
2022-08-01T08:54:10.179Z,23.99
2022-08-01T08:57:17.203Z,23.61
2022-08-01T09:00:24.236Z,24.23
2022-08-01T09:03:30.802Z,23.43
2022-08-01T09:06:39.055Z,23.57
2022-08-01T09:09:45.515Z,23.79
2022-08-01T09:13:12.913Z,24.07
2022-08-01T09:16:19.643Z,23.94
2022-08-01T09:19:40.388Z,24.44
2022-08-01T09:22:48.346Z,24.12
2022-08-01T09:25:56.830Z,24.13
2022-08-01T09:29:08.395Z,23.87
2022-08-01T09:32:16.864Z,24.39
2022-08-01T09:35:31.186Z,24.15
2022-08-01T09:38:39.604Z,24.10
2022-08-01T09:41:46.042Z,24.33
2022-08-01T09:44:54.821Z,24.19
2022-08-01T09:48:13.124Z,23.88
2022-08-01T09:51:59.670Z,23.99
2022-08-01T09:55:00.632Z,24.58
2022-08-01T11:07:48.140Z,25.34
2022-08-01T11:11:03.335Z,25.11
2022-08-01T11:14:12.649Z,25.43
2022-08-01T11:17:37.895Z,26.13
2022-08-01T11:21:59.109Z,26.17
2022-08-01T11:25:01.399Z,25.85
2022-08-01T11:28:28.931Z,25.86
2022-08-01T11:31:39.757Z,25.61
2022-08-01T11:34:56.678Z,25.87
2022-08-01T11:38:25.379Z,25.74
2022-08-01T11:41:38.153Z,26.09
2022-08-01T11:44:51.887Z,26.27
2022-08-01T11:47:58.713Z,25.82
2022-08-01T11:51:05.388Z,26.35
2022-08-01T11:54:11.874Z,26.16
2022-08-01T11:57:23.283Z,26.25
2022-08-01T12:00:31.597Z,26.49
2022-08-01T12:03:38.023Z,26.09
2022-08-01T12:06:44.252Z,26.20
2022-08-01T12:09:58.607Z,26.45
2022-08-01T12:13:07.839Z,26.61
2022-08-01T12:16:15.274Z,26.99
2022-08-01T12:19:23.028Z,26.44
2022-08-01T12:22:29.336Z,26.83
2022-08-01T12:25:35.857Z,26.27
2022-08-01T12:28:43.563Z,26.39
2022-08-01T12:31:49.695Z,26.43
2022-08-01T12:34:57.366Z,25.93
2022-08-01T12:38:08.520Z,26.96
2022-08-01T12:41:15.671Z,27.08
2022-08-01T12:44:23.258Z,27.28
2022-08-01T12:47:29.557Z,26.58
2022-08-01T12:50:36.726Z,27.03
2022-08-01T12:53:43.089Z,26.68
2022-08-01T12:56:49.433Z,26.91
2022-08-01T13:00:07.858Z,26.41
2022-08-01T13:03:16.547Z,27.36
2022-08-01T13:06:23.229Z,27.07
2022-08-01T13:09:29.558Z,26.99
2022-08-01T13:12:36.311Z,26.77
2022-08-01T13:15:45.790Z,26.87
2022-08-01T13:18:54.439Z,26.86
2022-08-01T13:22:00.875Z,27.74
2022-08-01T13:25:14.979Z,26.79
2022-08-01T13:28:24.318Z,26.75
2022-08-01T13:31:36.770Z,27.30
2022-08-01T13:34:42.991Z,27.19
2022-08-01T13:37:49.795Z,27.32
2022-08-01T13:41:00.928Z,26.69
2022-08-01T13:44:09.931Z,27.80
2022-08-01T13:47:17.851Z,26.71
2022-08-01T13:50:24.352Z,26.56
2022-08-01T13:53:30.730Z,26.65
2022-08-01T13:56:37.491Z,27.14
2022-08-01T13:59:43.886Z,27.01
2022-08-01T14:02:51.591Z,26.66
2022-08-01T14:05:58.705Z,26.80
2022-08-01T14:09:18.206Z,26.58
2022-08-01T14:12:30.186Z,27.41
2022-08-01T14:15:39.005Z,27.85
2022-08-01T14:18:47.219Z,27.11
2022-08-01T14:21:54.574Z,27.61
2022-08-01T14:25:03.572Z,27.29
2022-08-01T14:28:10.147Z,27.55
2022-08-01T14:31:16.687Z,27.37
2022-08-01T14:34:24.355Z,26.88
2022-08-01T14:37:34.719Z,27.29
2022-08-01T14:40:44.361Z,27.17
2022-08-01T14:43:50.247Z,27.23
2022-08-01T14:46:57.723Z,27.26
2022-08-01T14:50:08.556Z,27.25
2022-08-01T14:53:14.779Z,26.60
2022-08-01T14:56:20.843Z,26.29
2022-08-01T14:59:27.112Z,26.21
2022-08-01T15:02:33.383Z,26.53
2022-08-01T15:05:41.061Z,26.55
2022-08-01T15:08:47.219Z,26.41
2022-08-01T15:11:53.827Z,26.71
2022-08-01T15:15:03.348Z,26.01
2022-08-01T15:18:10.496Z,26.52
2022-08-01T15:21:39.867Z,26.40
2022-08-01T15:24:45.840Z,27.05
2022-08-01T15:27:52.594Z,27.74
2022-08-01T15:31:00.557Z,27.28
2022-08-01T15:34:06.959Z,25.25
2022-08-01T15:37:15.800Z,25.69
2022-08-01T15:40:21.794Z,25.44
2022-08-01T15:43:28.356Z,25.18
2022-08-01T15:46:35.192Z,24.99
2022-08-01T15:49:42.092Z,25.04
2022-08-01T15:52:49.950Z,25.00
2022-08-01T15:55:56.260Z,24.78
2022-08-01T15:59:04.487Z,24.87
2022-08-01T16:02:13.121Z,24.96
2022-08-01T16:05:20.575Z,24.80
2022-08-01T16:08:28.581Z,24.43
2022-08-01T16:11:38.467Z,24.28
2022-08-01T16:14:47.826Z,24.32
2022-08-01T16:17:54.410Z,24.16
2022-08-01T16:21:01.038Z,23.96
2022-08-01T16:24:11.552Z,23.79
2022-08-01T16:27:17.911Z,23.66
2022-08-01T16:30:24.685Z,23.72
2022-08-01T16:33:41.227Z,23.59
2022-08-01T16:36:58.261Z,23.59
2022-08-01T16:40:09.687Z,23.60
2022-08-01T16:43:16.851Z,23.64
2022-08-01T16:46:25.231Z,23.61
2022-08-01T16:49:33.031Z,23.64
2022-08-01T16:52:41.713Z,23.58
2022-08-01T16:55:51.093Z,23.58
2022-08-01T16:58:57.848Z,23.40
2022-08-01T17:02:04.550Z,23.39
2022-08-01T17:05:12.671Z,23.34
2022-08-01T17:08:19.830Z,23.34
2022-08-01T17:11:28.110Z,23.21
2022-08-01T17:14:34.998Z,23.14
2022-08-01T17:17:41.885Z,22.98
2022-08-01T17:20:50.347Z,22.79
2022-08-01T17:23:57.097Z,22.75
2022-08-01T17:27:10.739Z,22.71
2022-08-01T17:30:19.592Z,22.67
2022-08-01T17:33:44.553Z,22.52
2022-08-01T17:36:51.822Z,22.51
2022-08-01T17:39:58.830Z,22.51
2022-08-01T17:43:06.987Z,22.42
2022-08-01T17:46:13.137Z,22.27
2022-08-01T17:49:38.878Z,22.29
2022-08-01T17:52:47.579Z,22.18
2022-08-01T17:55:57.818Z,22.15
2022-08-01T17:59:06.265Z,22.05
2022-08-01T18:02:12.911Z,22.09
2022-08-01T18:05:19.729Z,22.07
2022-08-01T18:08:27.246Z,21.87
2022-08-01T18:11:37.422Z,21.77
2022-08-01T18:14:46.395Z,21.64
2022-08-01T18:17:52.920Z,21.81
2022-08-01T18:20:59.979Z,21.66
2022-08-01T18:24:07.311Z,21.65
2022-08-01T18:27:14.177Z,21.74
2022-08-01T18:30:25.059Z,21.55
2022-08-01T18:33:31.583Z,21.55
2022-08-01T18:36:40.395Z,21.41
2022-08-01T18:39:48.174Z,21.32
2022-08-01T18:42:55.303Z,21.29
2022-08-01T18:46:04.417Z,21.29
2022-08-01T18:49:13.134Z,21.11
2022-08-01T18:52:21.415Z,21.16
2022-08-01T18:55:34.843Z,21.01
2022-08-01T18:58:42.468Z,20.98
2022-08-01T19:01:50.508Z,20.91
2022-08-01T19:04:57.249Z,21.09
2022-08-01T19:08:15.737Z,20.95
2022-08-01T19:11:31.136Z,20.97
2022-08-01T19:14:37.713Z,20.74
2022-08-01T19:17:45.805Z,20.62
2022-08-01T19:20:52.685Z,20.37
2022-08-01T19:24:16.430Z,20.44
2022-08-01T19:27:26.593Z,20.32
2022-08-01T19:30:37.445Z,20.16
2022-08-01T19:33:45.156Z,20.16
2022-08-01T19:36:56.373Z,20.08
2022-08-01T19:40:05.722Z,20.18
2022-08-01T19:43:14.762Z,20.02
2022-08-01T19:46:21.483Z,19.97
2022-08-01T19:49:29.830Z,20.01
2022-08-01T19:52:48.933Z,20.04
2022-08-01T19:56:05.452Z,19.91
2022-08-01T19:59:18.286Z,19.79
2022-08-01T20:02:30.419Z,19.96
2022-08-01T20:05:43.792Z,19.73
2022-08-01T20:08:50.427Z,19.66
2022-08-01T20:12:01.375Z,19.58
2022-08-01T20:15:16.403Z,19.48
2022-08-01T20:18:29.438Z,19.44
2022-08-01T20:21:41.400Z,19.32
2022-08-01T20:25:01.806Z,19.03
2022-08-01T20:28:17.250Z,19.21
2022-08-01T20:31:34.651Z,19.04
2022-08-01T20:34:54.923Z,18.99
2022-08-01T20:38:07.407Z,18.85
2022-08-01T20:41:14.462Z,18.80
2022-08-01T20:44:23.051Z,18.69
2022-08-01T20:47:29.794Z,18.60
2022-08-01T20:50:54.954Z,18.62
2022-08-01T20:54:06.174Z,18.59
2022-08-01T20:57:20.741Z,18.15
2022-08-01T21:00:29.003Z,18.26
2022-08-01T21:03:47.527Z,18.30
2022-08-01T21:07:00.174Z,18.33
2022-08-01T21:10:10.562Z,18.04
2022-08-01T21:13:29.383Z,17.56
2022-08-01T21:16:44.933Z,17.20
2022-08-01T21:19:55.586Z,17.04
2022-08-01T21:23:15.947Z,17.10
2022-08-01T21:26:24.725Z,17.76
2022-08-01T21:29:34.063Z,17.90
2022-08-01T21:32:43.531Z,17.78
2022-08-01T21:35:52.175Z,17.83
2022-08-01T21:38:59.994Z,17.87
2022-08-01T21:42:09.604Z,17.21
2022-08-01T21:45:17.200Z,16.53
2022-08-01T21:48:26.760Z,16.39
2022-08-01T21:51:41.930Z,16.60
2022-08-01T21:54:59.866Z,17.32
2022-08-01T21:58:19.410Z,16.57
2022-08-01T22:01:33.758Z,17.15
2022-08-01T22:05:05.506Z,17.25
2022-08-01T22:08:13.061Z,17.03
2022-08-01T22:11:22.296Z,17.08
2022-08-01T22:14:34.189Z,17.02
2022-08-01T22:17:47.452Z,16.99
2022-08-01T22:20:55.377Z,15.88
2022-08-01T22:24:04.249Z,15.26
2022-08-01T22:28:05.844Z,14.85
2022-08-01T22:30:56.689Z,15.33
2022-08-01T22:34:03.508Z,15.83
2022-08-01T22:37:14.828Z,15.83
2022-08-01T22:40:21.611Z,16.10
2022-08-01T22:43:40.019Z,15.96
2022-08-01T22:46:56.728Z,15.22
2022-08-01T22:50:06.442Z,15.19
2022-08-01T22:53:24.597Z,14.88
2022-08-01T22:56:33.537Z,15.13
2022-08-01T22:59:48.365Z,15.19
2022-08-01T23:03:05.526Z,14.70
2022-08-01T23:06:22.846Z,14.79
2022-08-01T23:09:53.749Z,14.34
2022-08-01T23:12:57.551Z,14.39
2022-08-01T23:16:04.860Z,15.03
2022-08-01T23:19:14.758Z,15.15
2022-08-01T23:22:24.132Z,15.22
2022-08-01T23:25:34.869Z,14.66
2022-08-01T23:28:41.776Z,14.94
2022-08-01T23:32:03.581Z,14.56
2022-08-01T23:35:12.169Z,13.75
2022-08-01T23:38:21.701Z,13.57
2022-08-01T23:41:29.861Z,13.72
2022-08-01T23:44:43.699Z,13.84
2022-08-01T23:47:50.022Z,13.77
2022-08-01T23:51:03.385Z,13.74
2022-08-01T23:54:09.745Z,13.79
2022-08-01T23:57:17.175Z,13.70
